地図

経路データ

SID SEASON NUMBER BASIN SUBBASIN NAME ISO_TIME NATURE LAT LON WMO_WIND WMO_PRES WMO_AGENCY TRACK_TYPE DIST2LAND LANDFALL IFLAG USA_AGENCY USA_ATCF_ID USA_LAT USA_LON USA_RECORD USA_STATUS USA_WIND USA_PRES USA_SSHS USA_R34_NE USA_R34_SE USA_R34_SW USA_R34_NW USA_R50_NE USA_R50_SE USA_R50_SW USA_R50_NW USA_R64_NE USA_R64_SE USA_R64_SW USA_R64_NW USA_POCI USA_ROCI USA_RMW USA_EYE TOKYO_LAT TOKYO_LON TOKYO_GRADE TOKYO_WIND TOKYO_PRES TOKYO_R50_DIR TOKYO_R50_LONG TOKYO_R50_SHORT TOKYO_R30_DIR TOKYO_R30_LONG TOKYO_R30_SHORT TOKYO_LAND CMA_LAT CMA_LON CMA_CAT CMA_WIND CMA_PRES HKO_LAT HKO_LON HKO_CAT HKO_WIND HKO_PRES NEWDELHI_LAT NEWDELHI_LON NEWDELHI_GRADE NEWDELHI_WIND NEWDELHI_PRES NEWDELHI_CI NEWDELHI_DP NEWDELHI_POCI REUNION_LAT REUNION_LON REUNION_TYPE REUNION_WIND REUNION_PRES REUNION_TNUM REUNION_CI REUNION_RMW REUNION_R34_NE REUNION_R34_SE REUNION_R34_SW REUNION_R34_NW REUNION_R50_NE REUNION_R50_SE REUNION_R50_SW REUNION_R50_NW REUNION_R64_NE REUNION_R64_SE REUNION_R64_SW REUNION_R64_NW BOM_LAT BOM_LON BOM_TYPE BOM_WIND BOM_PRES BOM_TNUM BOM_CI BOM_RMW BOM_R34_NE BOM_R34_SE BOM_R34_SW BOM_R34_NW BOM_R50_NE BOM_R50_SE BOM_R50_SW BOM_R50_NW BOM_R64_NE BOM_R64_SE BOM_R64_SW BOM_R64_NW BOM_ROCI BOM_POCI BOM_EYE BOM_POS_METHOD BOM_PRES_METHOD NADI_LAT NADI_LON NADI_CAT NADI_WIND NADI_PRES WELLINGTON_LAT WELLINGTON_LON WELLINGTON_WIND WELLINGTON_PRES DS824_LAT DS824_LON DS824_STAGE DS824_WIND DS824_PRES TD9636_LAT TD9636_LON TD9636_STAGE TD9636_WIND TD9636_PRES TD9635_LAT TD9635_LON TD9635_WIND TD9635_PRES TD9635_ROCI NEUMANN_LAT NEUMANN_LON NEUMANN_CLASS NEUMANN_WIND NEUMANN_PRES MLC_LAT MLC_LON MLC_CLASS MLC_WIND MLC_PRES USA_GUST BOM_GUST BOM_GUST_PER REUNION_GUST REUNION_GUST_PER USA_SEAHGT USA_SEARAD_NE USA_SEARAD_SE USA_SEARAD_SW USA_SEARAD_NW STORM_SPEED STORM_DIR
1992258N17249 1992 85 EP MM ROSLYN 1992-09-13 12:00:00 TS 16.8000 -111.000 25 1010 hurdat_epa main 681 669 O_____________ hurdat_epa EP201992 16.8000 -111.000 TD 25 1010 -1 5 332
1992258N17249 1992 85 EP MM ROSLYN 1992-09-13 15:00:00 TS 17.0075 -111.107 main 669 649 P_____________ EP201992 17.0075 -111.107 TD 27 1009 -1 4 335
1992258N17249 1992 85 EP MM ROSLYN 1992-09-13 18:00:00 TS 17.2000 -111.200 30 1009 hurdat_epa main 649 629 O_____________ hurdat_epa EP201992 17.2000 -111.200 TD 30 1009 -1 4 335
1992258N17249 1992 85 EP MM ROSLYN 1992-09-13 21:00:00 TS 17.3649 -111.278 main 629 618 P_____________ EP201992 17.3649 -111.278 TD 30 1009 -1 4 328
1992258N17249 1992 85 EP MM ROSLYN 1992-09-14 00:00:00 TS 17.5000 -111.400 30 1009 hurdat_epa main 621 613 O_____________ hurdat_epa EP201992 17.5000 -111.400 TD 30 1009 -1 4 305
1992258N17249 1992 85 EP MM ROSLYN 1992-09-14 03:00:00 TS 17.6076 -111.635 main 615 611 P_____________ EP201992 17.6076 -111.635 TD 30 1008 -1 5 293
1992258N17249 1992 85 EP MM ROSLYN 1992-09-14 06:00:00 TS 17.7000 -111.900 30 1008 hurdat_epa main 614 607 O_____________ hurdat_epa EP201992 17.7000 -111.900 TD 30 1008 -1 5 294
1992258N17249 1992 85 EP MM ROSLYN 1992-09-14 09:00:00 TS 17.8075 -112.115 main 610 604 P_____________ EP201992 17.8075 -112.115 TD 32 1006 -1 4 298
1992258N17249 1992 85 EP MM ROSLYN 1992-09-14 12:00:00 TS 17.9000 -112.300 35 1005 hurdat_epa main 608 602 O_____________ hurdat_epa EP201992 17.9000 -112.300 TS 35 1005 0 4 294
1992258N17249 1992 85 EP MM ROSLYN 1992-09-14 15:00:00 TS 17.9575 -112.465 main 606 606 P_____________ EP201992 17.9575 -112.465 TS 42 1001 0 3 289
1992258N17249 1992 85 EP MM ROSLYN 1992-09-14 18:00:00 TS 18.0000 -112.600 50 997 hurdat_epa main 611 611 O_____________ hurdat_epa EP201992 18.0000 -112.600 TS 50 997 0 2 292
1992258N17249 1992 85 EP MM ROSLYN 1992-09-14 21:00:00 TS 18.0500 -112.708 main 615 605 P_____________ EP201992 18.0500 -112.708 TS 52 995 0 2 298
1992258N17249 1992 85 EP MM ROSLYN 1992-09-15 00:00:00 TS 18.1000 -112.800 55 994 hurdat_epa main 610 610 O_____________ hurdat_epa EP201992 18.1000 -112.800 TS 55 994 0 2 299
1992258N17249 1992 85 EP MM ROSLYN 1992-09-15 03:00:00 TS 18.1500 -112.900 main 606 606 P_____________ EP201992 18.1500 -112.900 TS 57 993 0 2 298
1992258N17249 1992 85 EP MM ROSLYN 1992-09-15 06:00:00 TS 18.2000 -113.000 60 992 hurdat_epa main 611 611 O_____________ hurdat_epa EP201992 18.2000 -113.000 TS 60 992 0 2 299
1992258N17249 1992 85 EP MM ROSLYN 1992-09-15 09:00:00 TS 18.2500 -113.093 main 616 607 P_____________ EP201992 18.2500 -113.093 TS 60 992 0 2 298
1992258N17249 1992 85 EP MM ROSLYN 1992-09-15 12:00:00 TS 18.3000 -113.200 60 992 hurdat_epa main 612 612 O_____________ hurdat_epa EP201992 18.3000 -113.200 TS 60 992 0 2 294
1992258N17249 1992 85 EP MM ROSLYN 1992-09-15 15:00:00 TS 18.3500 -113.328 main 618 609 P_____________ EP201992 18.3500 -113.328 TS 60 992 0 3 289
1992258N17249 1992 85 EP MM ROSLYN 1992-09-15 18:00:00 TS 18.4000 -113.500 60 993 hurdat_epa main 621 621 O_____________ hurdat_epa EP201992 18.4000 -113.500 TS 60 993 0 4 285
1992258N17249 1992 85 EP MM ROSLYN 1992-09-15 21:00:00 TS 18.4423 -113.698 main 633 624 P_____________ EP201992 18.4423 -113.698 TS 57 993 0 5 282
1992258N17249 1992 85 EP MM ROSLYN 1992-09-16 00:00:00 TS 18.5000 -114.000 55 994 hurdat_epa main 644 644 O_____________ hurdat_epa EP201992 18.5000 -114.000 TS 55 994 0 7 282
1992258N17249 1992 85 EP MM ROSLYN 1992-09-16 03:00:00 TS 18.5923 -114.433 main 663 663 P_____________ EP201992 18.5923 -114.433 TS 55 994 0 10 282
1992258N17249 1992 85 EP MM ROSLYN 1992-09-16 06:00:00 TS 18.7000 -115.000 55 994 hurdat_epa main 700 700 O_____________ hurdat_epa EP201992 18.7000 -115.000 TS 55 994 0 12 280
1992258N17249 1992 85 EP MM ROSLYN 1992-09-16 09:00:00 TS 18.7925 -115.670 main 748 748 P_____________ EP201992 18.7925 -115.670 TS 55 994 0 13 279
1992258N17249 1992 85 EP MM ROSLYN 1992-09-16 12:00:00 TS 18.9000 -116.400 55 995 hurdat_epa main 785 785 O_____________ hurdat_epa EP201992 18.9000 -116.400 TS 55 995 0 14 280
1992258N17249 1992 85 EP MM ROSLYN 1992-09-16 15:00:00 TS 19.0422 -117.100 main 819 810 P_____________ EP201992 19.0422 -117.100 TS 55 995 0 14 283
1992258N17249 1992 85 EP MM ROSLYN 1992-09-16 18:00:00 TS 19.2000 -117.800 55 995 hurdat_epa main 850 850 O_____________ hurdat_epa EP201992 19.2000 -117.800 TS 55 995 0 14 283
1992258N17249 1992 85 EP MM ROSLYN 1992-09-16 21:00:00 TS 19.3572 -118.500 main 885 885 P_____________ EP201992 19.3572 -118.500 TS 55 995 0 14 283
1992258N17249 1992 85 EP MM ROSLYN 1992-09-17 00:00:00 TS 19.5000 -119.200 55 995 hurdat_epa main 932 932 O_____________ hurdat_epa EP201992 19.5000 -119.200 TS 55 995 0 14 282
1992258N17249 1992 85 EP MM ROSLYN 1992-09-17 03:00:00 TS 19.6448 -119.907 main 982 975 P_____________ EP201992 19.6448 -119.907 TS 55 995 0 13 279
1992258N17249 1992 85 EP MM ROSLYN 1992-09-17 06:00:00 TS 19.7000 -120.600 55 995 hurdat_epa main 1034 1034 O_____________ hurdat_epa EP201992 19.7000 -120.600 TS 55 995 0 13 267
1992258N17249 1992 85 EP MM ROSLYN 1992-09-17 09:00:00 TS 19.5798 -121.273 main 1101 1101 P_____________ EP201992 19.5798 -121.273 TS 55 995 0 13 256
1992258N17249 1992 85 EP MM ROSLYN 1992-09-17 12:00:00 TS 19.4000 -121.900 55 995 hurdat_epa main 1159 1159 O_____________ hurdat_epa EP201992 19.4000 -121.900 TS 55 995 0 12 256
1992258N17249 1992 85 EP MM ROSLYN 1992-09-17 15:00:00 TS 19.2922 -122.465 main 1209 1209 P_____________ EP201992 19.2922 -122.465 TS 55 995 0 11 259
1992258N17249 1992 85 EP MM ROSLYN 1992-09-17 18:00:00 TS 19.2000 -123.000 55 995 hurdat_epa main 1251 1251 O_____________ hurdat_epa EP201992 19.2000 -123.000 TS 55 995 0 11 258
1992258N17249 1992 85 EP MM ROSLYN 1992-09-17 21:00:00 TS 19.0700 -123.565 main 1300 1300 P_____________ EP201992 19.0700 -123.565 TS 55 994 0 11 259
1992258N17249 1992 85 EP MM ROSLYN 1992-09-18 00:00:00 TS 19.0000 -124.100 55 994 hurdat_epa main 1343 1343 O_____________ hurdat_epa EP201992 19.0000 -124.100 TS 55 994 0 10 270
1992258N17249 1992 85 EP MM ROSLYN 1992-09-18 03:00:00 TS 19.0774 -124.580 main 1370 1370 P_____________ EP201992 19.0774 -124.580 TS 57 992 0 9 283
1992258N17249 1992 85 EP MM ROSLYN 1992-09-18 06:00:00 TS 19.2000 -125.000 60 991 hurdat_epa main 1392 1392 O_____________ hurdat_epa EP201992 19.2000 -125.000 TS 60 991 0 8 284
1992258N17249 1992 85 EP MM ROSLYN 1992-09-18 09:00:00 TS 19.2574 -125.373 main 1414 1414 P_____________ EP201992 19.2574 -125.373 TS 60 991 0 7 279
1992258N17249 1992 85 EP MM ROSLYN 1992-09-18 12:00:00 TS 19.3000 -125.700 60 991 hurdat_epa main 1437 1437 O_____________ hurdat_epa EP201992 19.3000 -125.700 TS 60 991 0 6 279
1992258N17249 1992 85 EP MM ROSLYN 1992-09-18 15:00:00 TS 19.3499 -126.008 main 1460 1453 P_____________ EP201992 19.3499 -126.008 TS 57 992 0 6 280
1992258N17249 1992 85 EP MM ROSLYN 1992-09-18 18:00:00 TS 19.4000 -126.300 55 994 hurdat_epa main 1477 1477 O_____________ hurdat_epa EP201992 19.4000 -126.300 TS 55 994 0 6 281
1992258N17249 1992 85 EP MM ROSLYN 1992-09-18 21:00:00 TS 19.4575 -126.600 main 1493 1493 P_____________ EP201992 19.4575 -126.600 TS 50 997 0 6 280
1992258N17249 1992 85 EP MM ROSLYN 1992-09-19 00:00:00 TS 19.5000 -126.900 45 1000 hurdat_epa main 1517 1517 O_____________ hurdat_epa EP201992 19.5000 -126.900 TS 45 1000 0 6 275
1992258N17249 1992 85 EP MM ROSLYN 1992-09-19 03:00:00 TS 19.5075 -127.208 main 1542 1542 P_____________ EP201992 19.5075 -127.208 TS 42 1001 0 6 270
1992258N17249 1992 85 EP MM ROSLYN 1992-09-19 06:00:00 TS 19.5000 -127.500 40 1002 hurdat_epa main 1566 1566 O_____________ hurdat_epa EP201992 19.5000 -127.500 TS 40 1002 0 5 268
1992258N17249 1992 85 EP MM ROSLYN 1992-09-19 09:00:00 TS 19.4925 -127.765 main 1591 1591 P_____________ EP201992 19.4925 -127.765 TS 42 1001 0 5 270
1992258N17249 1992 85 EP MM ROSLYN 1992-09-19 12:00:00 TS 19.5000 -128.000 45 1000 hurdat_epa main 1608 1608 O_____________ hurdat_epa EP201992 19.5000 -128.000 TS 45 1000 0 4 277
1992258N17249 1992 85 EP MM ROSLYN 1992-09-19 15:00:00 TS 19.5425 -128.207 main 1625 1618 P_____________ EP201992 19.5425 -128.207 TS 47 999 0 4 285
1992258N17249 1992 85 EP MM ROSLYN 1992-09-19 18:00:00 TS 19.6000 -128.400 50 998 hurdat_epa main 1635 1635 O_____________ hurdat_epa EP201992 19.6000 -128.400 TS 50 998 0 4 287
1992258N17249 1992 85 EP MM ROSLYN 1992-09-19 21:00:00 TS 19.6575 -128.600 main 1645 1645 P_____________ EP201992 19.6575 -128.600 TS 47 999 0 4 285
1992258N17249 1992 85 EP MM ROSLYN 1992-09-20 00:00:00 TS 19.7000 -128.800 45 1000 hurdat_epa main 1662 1662 O_____________ hurdat_epa EP201992 19.7000 -128.800 TS 45 1000 0 4 276
1992258N17249 1992 85 EP MM ROSLYN 1992-09-20 03:00:00 TS 19.7000 -129.008 main 1679 1679 P_____________ EP201992 19.7000 -129.008 TS 45 1000 0 4 270
1992258N17249 1992 85 EP MM ROSLYN 1992-09-20 06:00:00 TS 19.7000 -129.200 45 1000 hurdat_epa main 1697 1697 O_____________ hurdat_epa EP201992 19.7000 -129.200 TS 45 1000 0 3 280
1992258N17249 1992 85 EP MM ROSLYN 1992-09-20 09:00:00 TS 19.7575 -129.357 main 1708 1708 P_____________ EP201992 19.7575 -129.357 TS 45 1000 0 3 290
1992258N17249 1992 85 EP MM ROSLYN 1992-09-20 12:00:00 TS 19.8000 -129.500 45 1000 hurdat_epa main 1716 1716 O_____________ hurdat_epa EP201992 19.8000 -129.500 TS 45 1000 0 3 272
1992258N17249 1992 85 EP MM ROSLYN 1992-09-20 15:00:00 TS 19.7650 -129.650 main 1734 1734 P_____________ EP201992 19.7650 -129.650 TS 45 1000 0 3 250
1992258N17249 1992 85 EP MM ROSLYN 1992-09-20 18:00:00 TS 19.7000 -129.800 45 1000 hurdat_epa main 1749 1749 O_____________ hurdat_epa EP201992 19.7000 -129.800 TS 45 1000 0 3 248
1992258N17249 1992 85 EP MM ROSLYN 1992-09-20 21:00:00 TS 19.6500 -129.950 main 1764 1772 P_____________ EP201992 19.6500 -129.950 TS 42 1001 0 3 250
1992258N17249 1992 85 EP MM ROSLYN 1992-09-21 00:00:00 TS 19.6000 -130.100 40 1002 hurdat_epa main 1781 1781 O_____________ hurdat_epa EP201992 19.6000 -130.100 TS 40 1002 0 3 250
1992258N17249 1992 85 EP MM ROSLYN 1992-09-21 03:00:00 TS 19.5500 -130.250 main 1796 1805 P_____________ EP201992 19.5500 -130.250 TS 40 1002 0 3 250
1992258N17249 1992 85 EP MM ROSLYN 1992-09-21 06:00:00 TS 19.5000 -130.400 40 1002 hurdat_epa main 1814 1814 O_____________ hurdat_epa EP201992 19.5000 -130.400 TS 40 1002 0 3 250
1992258N17249 1992 85 EP MM ROSLYN 1992-09-21 09:00:00 TS 19.4500 -130.542 main 1828 1828 P_____________ EP201992 19.4500 -130.542 TS 40 1001 0 3 250
1992258N17249 1992 85 EP MM ROSLYN 1992-09-21 12:00:00 TS 19.4000 -130.700 40 1001 hurdat_epa main 1846 1846 O_____________ hurdat_epa EP201992 19.4000 -130.700 TS 40 1001 0 3 253
1992258N17249 1992 85 EP MM ROSLYN 1992-09-21 15:00:00 TS 19.3500 -130.893 main 1864 1864 P_____________ EP201992 19.3500 -130.893 TS 42 1000 0 4 255
1992258N17249 1992 85 EP MM ROSLYN 1992-09-21 18:00:00 TS 19.3000 -131.100 45 1000 hurdat_epa main 1887 1887 O_____________ hurdat_epa EP201992 19.3000 -131.100 TS 45 1000 0 4 255
1992258N17249 1992 85 EP MM ROSLYN 1992-09-21 21:00:00 TS 19.2500 -131.292 main 1911 1911 P_____________ EP201992 19.2500 -131.292 TS 47 998 0 4 255
1992258N17249 1992 85 EP MM ROSLYN 1992-09-22 00:00:00 TS 19.2000 -131.500 50 997 hurdat_epa main 1929 1929 O_____________ hurdat_epa EP201992 19.2000 -131.500 TS 50 997 0 4 257
1992258N17249 1992 85 EP MM ROSLYN 1992-09-22 03:00:00 TS 19.1500 -131.742 main 1946 1952 P_____________ EP201992 19.1500 -131.742 TS 52 995 0 5 258
1992258N17249 1992 85 EP MM ROSLYN 1992-09-22 06:00:00 TS 19.1000 -132.000 55 994 hurdat_epa main 1979 1979 O_____________ hurdat_epa EP201992 19.1000 -132.000 TS 55 994 0 5 257
1992258N17249 1992 85 EP MM ROSLYN 1992-09-22 09:00:00 TS 19.0425 -132.250 main 2012 2012 P_____________ EP201992 19.0425 -132.250 TS 57 992 0 5 258
1992258N17249 1992 85 EP MM ROSLYN 1992-09-22 12:00:00 TS 19.0000 -132.500 60 990 hurdat_epa main 2029 2029 O_____________ hurdat_epa EP201992 19.0000 -132.500 TS 60 990 0 5 264
1992258N17249 1992 85 EP MM ROSLYN 1992-09-22 15:00:00 TS 18.9924 -132.727 main 2047 2047 P_____________ EP201992 18.9924 -132.727 TS 65 987 1 5 270
1992258N17249 1992 85 EP MM ROSLYN 1992-09-22 18:00:00 TS 19.0000 -133.000 70 984 hurdat_epa main 2074 2074 O_____________ hurdat_epa EP201992 19.0000 -133.000 HU 70 984 1 6 271
1992258N17249 1992 85 EP MM ROSLYN 1992-09-22 21:00:00 TS 19.0074 -133.362 main 2110 2110 P_____________ EP201992 19.0074 -133.362 HU 72 982 1 8 270
1992258N17249 1992 85 EP MM ROSLYN 1992-09-23 00:00:00 TS 19.0000 -133.800 75 980 hurdat_epa main 2146 2146 O_____________ hurdat_epa EP201992 19.0000 -133.800 HU 75 980 1 9 267
1992258N17249 1992 85 EP MM ROSLYN 1992-09-23 03:00:00 TS 18.9574 -134.278 main 2151 2100 P_____________ EP201992 18.9574 -134.278 HU 80 977 1 10 264
1992258N17249 1992 85 EP MM ROSLYN 1992-09-23 06:00:00 TS 18.9000 -134.800 85 975 hurdat_epa main 2100 2047 O_____________ hurdat_epa EP201992 18.9000 -134.800 HU 85 975 2 10 265
1992258N17249 1992 85 EP MM ROSLYN 1992-09-23 09:00:00 TS 18.8648 -135.335 main 2047 1985 P_____________ EP201992 18.8648 -135.335 HU 82 976 1 10 265
1992258N17249 1992 85 EP MM ROSLYN 1992-09-23 12:00:00 TS 18.8000 -135.900 80 978 hurdat_epa main 1985 1924 O_____________ hurdat_epa EP201992 18.8000 -135.900 HU 80 978 1 11 259
1992258N17249 1992 85 EP MM ROSLYN 1992-09-23 15:00:00 TS 18.6574 -136.500 main 1924 1863 P_____________ EP201992 18.6574 -136.500 HU 77 979 1 12 255
1992258N17249 1992 85 EP MM ROSLYN 1992-09-23 18:00:00 TS 18.5000 -137.100 75 981 hurdat_epa main 1863 1812 O_____________ hurdat_epa EP201992 18.5000 -137.100 HU 75 981 1 11 256
1992258N17249 1992 85 EP MM ROSLYN 1992-09-23 21:00:00 TS 18.3773 -137.657 main 1801 1750 P_____________ EP201992 18.3773 -137.657 HU 70 983 1 11 259
1992258N17249 1992 85 EP MM ROSLYN 1992-09-24 00:00:00 TS 18.3000 -138.200 65 985 hurdat_epa main 1750 1698 O_____________ hurdat_epa EP201992 18.3000 -138.200 HU 65 985 1 10 265
1992258N17249 1992 85 EP MM ROSLYN 1992-09-24 03:00:00 TS 18.2848 -138.742 main 1698 1635 P_____________ EP201992 18.2848 -138.742 HU 65 987 1 10 270
1992258N17249 1992 85 EP MM ROSLYN 1992-09-24 06:00:00 TS 18.3000 -139.300 65 990 hurdat_epa main 1635 1583 O_____________ hurdat_epa EP201992 18.3000 -139.300 HU 65 990 1 11 271
1992258N17249 1992 85 EP MM ROSLYN 1992-09-24 09:00:00 TS 18.3072 -139.877 main 1572 1509 P_____________ EP201992 18.3072 -139.877 HU 62 991 0 11 270
1992258N17249 1992 85 EP CP ROSLYN 1992-09-24 12:00:00 TS 18.3000 -140.500 60 992 hurdat_epa main 1509 1436 O_____________ hurdat_epa EP201992 18.3000 -140.500 TS 60 992 0 13 267
1992258N17249 1992 85 EP CP ROSLYN 1992-09-24 15:00:00 TS 18.2512 -141.201 main 1436 1364 P_____________ EP201992 18.2500 -141.193 TS 57 993 0 13 266
1992258N17249 1992 85 EP CP ROSLYN 1992-09-24 18:00:00 TS 18.2000 -141.900 55 994 hurdat_epa main 1364 1302 O_____________ hurdat_epa EP201992 18.2000 -141.900 TS 55 994 0 13 267
1992258N17249 1992 85 EP CP ROSLYN 1992-09-24 21:00:00 TS 18.1762 -142.552 main 1291 1239 P_____________ EP201992 18.1926 -142.610 TS 52 995 0 11 269
1992258N17249 1992 85 EP CP ROSLYN 1992-09-25 00:00:00 TS 18.1750 -143.100 50 997 hurdat_epa main 1239 1208 O_____________ hurdat_epa EP201992 18.2000 -143.200 TS 50 997 0 9 271
1992258N17249 1992 85 EP CP ROSLYN 1992-09-25 03:00:00 TS 18.1845 -143.458 main 1197 1166 P_____________ EP201992 18.1844 -143.515 TS 50 997 0 7 274
1992258N17249 1992 85 EP CP ROSLYN 1992-09-25 06:00:00 TS 18.2250 -143.800 50 998 hurdat_epa main 1166 1112 O_____________ hurdat_epa EP201992 18.2000 -143.800 TS 50 998 0 9 279
1992258N17249 1992 85 EP CP ROSLYN 1992-09-25 09:00:00 TS 18.3167 -144.372 main 1102 1048 P_____________ EP201992 18.3005 -144.365 TS 47 999 0 11 280
1992258N17249 1992 85 EP CP ROSLYN 1992-09-25 12:00:00 TS 18.4000 -144.900 45 1000 hurdat_epa main 1048 1027 O_____________ hurdat_epa EP201992 18.4000 -144.900 TS 45 1000 0 7 277
1992258N17249 1992 85 EP CP ROSLYN 1992-09-25 15:00:00 TS 18.4128 -145.145 main 1027 1006 P_____________ EP201992 18.4147 -145.153 TS 45 1000 0 4 270
1992258N17249 1992 85 EP CP ROSLYN 1992-09-25 18:00:00 TS 18.4000 -145.300 45 1001 hurdat_epa main 1006 985 O_____________ hurdat_epa EP201992 18.4000 -145.300 TS 45 1001 0 3 269
1992258N17249 1992 85 EP CP ROSLYN 1992-09-25 21:00:00 TS 18.4073 -145.497 main 985 954 P_____________ EP201992 18.4072 -145.440 TS 45 1001 0 5 270
1992258N17249 1992 85 EP CP ROSLYN 1992-09-26 00:00:00 TS 18.4000 -145.800 45 1001 hurdat_epa main 954 902 O_____________ hurdat_epa EP201992 18.4000 -145.700 TS 45 1001 0 8 266
1992258N17249 1992 85 EP CP ROSLYN 1992-09-26 03:00:00 TS 18.3505 -146.350 main 891 841 P_____________ EP201992 18.3506 -146.293 TS 42 1001 0 10 265
1992258N17249 1992 85 EP CP ROSLYN 1992-09-26 06:00:00 TS 18.3000 -146.900 40 1002 hurdat_epa main 841 810 O_____________ hurdat_epa EP201992 18.3000 -146.900 TS 40 1002 0 8 266
1992258N17249 1992 85 EP CP ROSLYN 1992-09-26 09:00:00 TS 18.2940 -147.180 main 810 789 P_____________ EP201992 18.2921 -147.180 TS 40 1002 0 5 270
1992258N17249 1992 85 EP CP ROSLYN 1992-09-26 12:00:00 TS 18.3000 -147.400 40 1002 hurdat_epa main 789 758 O_____________ hurdat_epa EP201992 18.3000 -147.400 TS 40 1002 0 5 271
1992258N17249 1992 85 EP CP ROSLYN 1992-09-26 15:00:00 TS 18.3001 -147.671 main 758 717 P_____________ EP201992 18.3144 -147.702 TS 40 1002 0 7 268
1992258N17249 1992 85 EP CP ROSLYN 1992-09-26 18:00:00 TS 18.2750 -148.100 40 1003 hurdat_epa main 717 637 O_____________ hurdat_epa EP201992 18.3000 -148.200 TS 40 1003 0 12 265
1992258N17249 1992 85 EP CP ROSLYN 1992-09-26 21:00:00 TS 18.1888 -148.913 main 637 569 P_____________ EP201992 18.2017 -149.160 TS 40 1003 0 15 263
1992258N17249 1992 85 EP CP ROSLYN 1992-09-27 00:00:00 TS 18.1000 -149.650 40 1003 hurdat_epa main 569 549 O_____________ hurdat_epa EP201992 18.1000 -150.000 TS 40 1003 0 9 262
1992258N17249 1992 85 EP CP ROSLYN 1992-09-27 03:00:00 TS 18.0663 -149.832 main 549 549 P_____________ EP201992 18.0768 -150.112 TS 40 1003 0 2 262
1992258N17249 1992 85 EP CP ROSLYN 1992-09-27 06:00:00 TS 18.0750 -149.850 40 1003 hurdat_epa main 539 518 O_____________ hurdat_epa EP201992 18.1000 -150.000 TS 40 1003 0 3 281
1992258N17249 1992 85 EP CP ROSLYN 1992-09-27 09:00:00 TS 18.1139 -150.094 main 518 495 P_____________ EP201992 18.1426 -150.157 TS 40 1003 0 4 283
1992258N17249 1992 85 EP CP ROSLYN 1992-09-27 12:00:00 TS 18.1750 -150.300 40 1003 hurdat_epa main 495 495 O_____________ hurdat_epa EP201992 18.2000 -150.300 TS 40 1003 0 3 295
1992258N17249 1992 85 EP CP ROSLYN 1992-09-27 15:00:00 TS 18.2243 -150.342 main 495 492 P_____________ EP201992 18.2349 -150.317 TS 40 1003 0 1 18
1992258N17249 1992 85 EP CP ROSLYN 1992-09-27 18:00:00 TS 18.3000 -150.250 40 1003 hurdat_epa main 502 492 O_____________ hurdat_epa EP201992 18.3000 -150.200 TS 40 1003 0 4 56
1992258N17249 1992 85 EP CP ROSLYN 1992-09-27 21:00:00 TS 18.4452 -149.995 main 519 516 P_____________ EP201992 18.4577 -149.855 TS 40 1003 0 5 57
1992258N17249 1992 85 EP CP ROSLYN 1992-09-28 00:00:00 TS 18.5750 -149.800 40 1003 hurdat_epa main 535 524 O_____________ hurdat_epa EP201992 18.6000 -149.600 TS 40 1003 0 1 18
1992258N17249 1992 85 EP CP ROSLYN 1992-09-28 03:00:00 TS 18.5857 -149.952 main 514 504 P_____________ EP201992 18.6002 -149.812 TS 40 1003 0 3 274
1992258N17249 1992 85 EP CP ROSLYN 1992-09-28 06:00:00 TS 18.6000 -150.150 40 1003 hurdat_epa main 504 491 O_____________ hurdat_epa EP201992 18.6000 -150.100 TS 40 1003 0 2 310
1992258N17249 1992 85 EP CP ROSLYN 1992-09-28 09:00:00 TS 18.7312 -150.135 main 501 499 P_____________ EP201992 18.7274 -150.125 TS 40 1002 0 3 25
1992258N17249 1992 85 EP CP ROSLYN 1992-09-28 12:00:00 TS 18.9000 -150.000 40 1002 hurdat_epa main 508 508 O_____________ hurdat_epa EP201992 18.9000 -150.000 TS 40 1002 0 5 46
1992258N17249 1992 85 EP CP ROSLYN 1992-09-28 15:00:00 TS 19.0451 -149.788 main 527 526 P_____________ EP201992 19.0576 -149.765 TS 42 1001 0 5 57
1992258N17249 1992 85 EP CP ROSLYN 1992-09-28 18:00:00 TS 19.1750 -149.550 45 1001 hurdat_epa main 546 546 O_____________ hurdat_epa EP201992 19.2000 -149.500 TS 45 1001 0 4 58
1992258N17249 1992 85 EP CP ROSLYN 1992-09-28 21:00:00 TS 19.2805 -149.389 main 566 566 P_____________ EP201992 19.3074 -149.350 TS 45 1000 0 4 57
1992258N17249 1992 85 EP CP ROSLYN 1992-09-29 00:00:00 TS 19.3750 -149.225 45 1000 hurdat_epa main 587 587 O_____________ hurdat_epa EP201992 19.4000 -149.200 TS 45 1000 0 4 62
1992258N17249 1992 85 EP CP ROSLYN 1992-09-29 03:00:00 TS 19.4807 -148.984 main 607 607 P_____________ EP201992 19.5076 -148.943 TS 45 999 0 5 66
1992258N17249 1992 85 EP CP ROSLYN 1992-09-29 06:00:00 TS 19.5750 -148.750 45 999 hurdat_epa main 639 628 O_____________ hurdat_epa EP201992 19.6000 -148.700 TS 45 999 0 4 64
1992258N17249 1992 85 EP CP ROSLYN 1992-09-29 09:00:00 TS 19.6449 -148.620 main 649 649 P_____________ EP201992 19.6574 -148.607 TS 45 999 0 3 64
1992258N17249 1992 85 EP CP ROSLYN 1992-09-29 12:00:00 TS 19.7000 -148.475 45 1000 hurdat_epa main 660 660 O_____________ hurdat_epa EP201992 19.7000 -148.500 TS 45 1000 0 4 75
1992258N17249 1992 85 EP CP ROSLYN 1992-09-29 15:00:00 TS 19.7463 -148.216 main 691 691 P_____________ EP201992 19.7425 -148.237 TS 45 1000 0 6 80
1992258N17249 1992 85 EP CP ROSLYN 1992-09-29 18:00:00 TS 19.8000 -147.900 45 1001 hurdat_epa main 723 723 O_____________ hurdat_epa EP201992 19.8000 -147.900 TS 45 1001 0 6 78
1992258N17249 1992 85 EP CP ROSLYN 1992-09-29 21:00:00 TS 19.8782 -147.551 main 754 754 P_____________ EP201992 19.8926 -147.520 TS 42 1001 0 6 74
1992258N17249 1992 85 EP CP ROSLYN 1992-09-30 00:00:00 TS 19.9750 -147.250 40 1002 hurdat_epa main 797 786 O_____________ hurdat_epa EP201992 20.0000 -147.200 TS 40 1002 0 5 67
1992258N17249 1992 85 EP CP ROSLYN 1992-09-30 03:00:00 TS 20.0517 -147.106 main 808 808 P_____________ EP201992 20.0623 -147.077 TS 37 1003 0 3 46
1992258N17249 1992 85 EP CP ROSLYN 1992-09-30 06:00:00 TS 20.2000 -147.000 35 1004 hurdat_epa main 819 819 O_____________ hurdat_epa EP201992 20.2000 -147.000 TS 35 1004 0 5 34
1992258N17249 1992 85 EP CP ROSLYN 1992-09-30 09:00:00 TS 20.4932 -146.789 main 843 843 P_____________ EP201992 20.5201 -146.793 TS 35 1004 0 8 30
1992258N17249 1992 85 EP CP ROSLYN 1992-09-30 12:00:00 TS 20.8500 -146.600 35 1005 hurdat_epa main 869 869 O_____________ hurdat_epa EP201992 20.9000 -146.600 TS 35 1005 0 7 20
1992258N17249 1992 85 EP CP ROSLYN 1992-09-30 15:00:00 TS 21.1856 -146.516 main 885 885 P_____________ EP201992 21.2224 -146.515 TS 32 1006 -1 7 9
1992258N17249 1992 85 EP CP ROSLYN 1992-09-30 18:00:00 TS 21.5000 -146.500 30 1008 hurdat_epa main 892 O_____________ hurdat_epa EP201992 21.5000 -146.500 TD 30 1008 -1 6 0

IBTrACS Databaseについて

本データベースは、米国NOAAが公開する1842年以降の世界の熱帯低気圧のベストトラックデータアーカイブInternational Best Track Archive for Climate Stewardship (IBTrACS)を、ウェブで閲覧しやすい形式に変換したものです。

最終更新日:2021-10-19